AirNav   Air Wisconsin Up To $57,000 Bonus
 
 1269 users online  

MA63 Sherman-Private Airport
Pembroke, Massachusetts, USA

GOING TO PEMBROKE?


FAA INFORMATION EFFECTIVE 03 NOVEMBER 2022

Location

FAA Identifier: MA63
Lat/Long: 42-04-26.3660N 070-47-53.1460W
42-04.439433N 070-47.885767W
42.0739906,-70.7980961
(estimated)
Elevation: 34 ft. / 10 m (estimated)
Variation: 16W (1985)
From city: 1 mile E of PEMBROKE, MA
(APRX 25 SM S OF BOSTON.)
Time zone: UTC -5 (UTC -4 during Daylight Saving Time)
Zip code: 02359

Airport Operations

Airport use: Private use. Permission required prior to landing
Activation date: 03/1961
Control tower: no
ARTCC: BOSTON CENTER
FSS: BRIDGEPORT FLIGHT SERVICE STATION
Attendance: UNATNDD
Wind indicator: no
Segmented circle: no

Airport Communications

WX AWOS-3 at GHG (6 nm E): 120.0 (781-837-0555)
WX ASOS at PYM (10 nm S): 135.625 (508-732-8358)
WX ASOS at TAN (15 nm SW): 132.675 (508-824-5005)
WX ASOS at OWD (18 nm NW): 119.95 (781-762-4314)
WX ASOS at BOS (20 nm NW): 135.0 (617-567-5762)

Nearby radio navigation aids

VOR radial/distance  VOR name  Freq  Var
BOSr169/19.0BOSTON VOR/DME112.7016W
LFVr292/34.1MARCONI VOR/DME114.7016W
PVDr067/35.2PROVIDENCE VOR/DME115.6014W

 
NDB name  Hdg/Dist  Freq  Var  ID
STOGE116/15.039715WOW --- .--
PROVINCETOWN287/25.638916WPVC .--. ...- -.-.

Airport Services

Airframe service: NONE
Powerplant service: NONE

Runway Information

Runway N/S

Dimensions: 1500 x 50 ft. / 457 x 15 m
Surface: turf
RUNWAY N  RUNWAY S
Traffic pattern: leftleft
Obstructions: treestrees

Airport Ownership and Management from official FAA records

Ownership: Privately-owned
Owner: EAMON P FEE
210 BARKER ST
PEMBROKE, MA 02359
Phone 617-592-3928
Manager: EAMON P FEE
210 BARKER ST
PEMBROKE, MA 02359
Phone 617-592-3928

Airport Operational Statistics

Aircraft based on the field: 1
Single engine airplanes: 1
    

Additional Remarks

FOR CD CTC BOSTON APCH AT 603-594-5551.

Instrument Procedures

There are no published instrument procedures at MA63.

Some nearby airports with instrument procedures:

KGHG - Marshfield Municipal Airport - George Harlow Field (6 nm E)
KPYM - Plymouth Municipal Airport (10 nm S)
KTAN - Taunton Municipal Airport - King Field (15 nm SW)
KOWD - Norwood Memorial Airport (18 nm NW)
1B9 - Mansfield Municipal Airport (18 nm W)
KBOS - General Edward Lawrence Logan International Airport (20 nm NW)
 
Loc | Ops | Rwys | IFR | FBO | Links
Com | Nav | Svcs | Stats | Notes
Area around MA63 (Sherman-Private Airport)
 
Road maps at: MapQuest Bing Google
 
Aerial photo
No photo
 
Sectional chart

 
Airport distance calculator
Flying to Sherman-Private Airport? Find the distance to fly.

From to MA63

Sunrise and sunset
Times for 29-Nov-2022
 Local
(UTC-5)
 Zulu
(UTC)
Morning civil twilight06:2011:20
Sunrise06:5111:51
Sunset16:1221:12
Evening civil twilight16:4321:43

Current date and time
Zulu (UTC)  29-Nov-2022 14:15:14
Local (UTC-5)  29-Nov-2022 09:15:14
 
METAR
KGHG 
6nm E 
291355Z AUTO VRB04KT 10SM 04/M01 A3025 RMK AO2
KPYM 
10nm S 
291352Z AUTO 30006KT 10SM CLR 03/M02 A3025 RMK AO2 SLP247 T00281022
KTAN 
15nm SW 
291352Z AUTO A3027 RMK AO2 SLPNO PWINO FZRANO TSNO $
KOWD 
18nm W 
291353Z 32005KT 10SM OVC032 02/M03 A3028 RMK AO2 SLP254 T00171033
TAF
KBOS 
20nm NW 
291121Z 2912/3018 34010KT P6SM FEW200 FM291600 03006KT P6SM BKN120 FM291800 11007KT P6SM FEW025 SCT035 FM300000 16007KT P6SM BKN080 FM301300 14011G17KT P6SM OVC025 FM301700 16016G26KT P6SM VCSH OVC015
NOTAMs
Click for the latest NOTAMs
NOTAMs are issued by the DoD/FAA and will open in a separate window not controlled by AirNav.

 

 
 

Would you like to see your business listed on this page?

 If your business provides an interesting product or service to pilots, flight crews, aircraft, or users of the Sherman-Private Airport, you should consider listing it here.  To start the listing process, click on the button below
 
Add a business
 

Other Pages about Sherman-Private Airport

Update a link
 
Copyright © AirNav, LLC. All rights reserved. Privacy Policy  Contact